Time;durP1;ratioP1;P1;durP2;ratioP2;P2;SDS_P1;SDS_P2;PMS_P1;PMS_P2;Temp;Humidity;BMP_temperature;BMP_pressure;BME280_temperature;BME280_humidity;BME280_pressure;Samples;Min_cycle;Max_cycle;Signal;HPM_P1;HPM_P2
2021/09/17 00:01:39;;;;;;;0.00;0.00;;;;;;;14.32;91.83;101527.09;10442872;28;20023;-70
2021/09/17 00:06:40;;;;;;;0.00;0.00;;;;;;;14.32;91.85;101521.75;10434480;28;20009;-70
2021/09/17 00:11:40;;;;;;;0.10;0.10;;;;;;;14.32;90.50;101529.78;10426790;28;20023;-69
2021/09/17 00:16:41;;;;;;;0.10;0.10;;;;;;;14.31;90.90;101514.72;10441745;28;20025;-70
2021/09/17 00:21:41;;;;;;;0.10;0.10;;;;;;;14.27;90.84;101522.22;10438187;28;20029;-70
2021/09/17 00:26:41;;;;;;;0.00;0.00;;;;;;;14.26;90.72;101519.75;10431461;28;20031;-69
2021/09/17 00:31:42;;;;;;;0.10;0.10;;;;;;;14.26;91.32;101525.09;10432698;28;20104;-70
2021/09/17 00:36:42;;;;;;;0.10;0.10;;;;;;;14.25;91.15;101528.75;10424566;28;20041;-69
2021/09/17 00:41:43;;;;;;;0.10;0.10;;;;;;;14.27;89.85;101514.19;10425393;28;20039;-70
2021/09/17 00:46:43;;;;;;;0.10;0.10;;;;;;;14.28;89.96;101515.03;10437461;28;20014;-69
2021/09/17 00:51:45;;;;;;;0.10;0.10;;;;;;;14.31;89.62;101519.22;10432395;28;20087;-69
2021/09/17 00:56:46;;;;;;;0.10;0.10;;;;;;;14.30;89.71;101518.38;10404413;28;20515;-69
2021/09/17 01:01:46;;;;;;;0.10;0.10;;;;;;;14.32;88.18;101513.72;10432409;28;20146;-69
2021/09/17 01:06:46;;;;;;;0.10;0.10;;;;;;;14.31;87.53;101514.72;10438316;28;20025;-69
2021/09/17 01:11:47;;;;;;;0.10;0.10;;;;;;;14.33;86.82;101514.53;10434228;28;20029;-69
2021/09/17 01:16:47;;;;;;;0.10;0.10;;;;;;;14.34;86.51;101522.44;10423976;28;20473;-69
2021/09/17 01:21:56;;;;;;;0.00;0.00;;;;;;;14.35;86.51;101526.78;10431366;28;20052;-69
2021/09/17 01:26:57;;;;;;;0.10;0.10;;;;;;;14.34;86.68;101514.38;10439558;28;20623;-69
2021/09/17 01:31:57;;;;;;;0.10;0.10;;;;;;;14.34;87.09;101518.88;10434808;28;20112;-69
2021/09/17 01:36:57;;;;;;;0.10;0.10;;;;;;;14.32;86.78;101505.66;10424655;28;20017;-69
2021/09/17 01:41:58;;;;;;;0.10;0.10;;;;;;;14.30;87.18;101510.34;10426281;28;20037;-69
2021/09/17 01:46:58;;;;;;;0.10;0.10;;;;;;;14.31;86.19;101509.38;10435698;28;20449;-69
2021/09/17 01:51:59;;;;;;;0.10;0.10;;;;;;;14.32;85.85;101504.84;10422520;28;20036;-69
2021/09/17 01:56:59;;;;;;;0.10;0.10;;;;;;;14.30;86.19;101502.31;10424457;28;20099;-69
2021/09/17 02:02:00;;;;;;;0.08;0.08;;;;;;;14.30;85.18;101504.16;10429810;28;20028;-69
2021/09/17 02:07:00;;;;;;;0.10;0.10;;;;;;;14.28;85.20;101501.63;10422473;28;20458;-69
2021/09/17 02:12:00;;;;;;;0.10;0.10;;;;;;;14.23;85.74;101487.91;10427220;28;20032;-69
2021/09/17 02:17:01;;;;;;;0.10;0.10;;;;;;;14.24;86.38;101489.59;10430492;28;20024;-68
2021/09/17 02:22:01;;;;;;;0.00;0.00;;;;;;;14.21;85.98;101495.28;10442705;28;20025;-69
2021/09/17 02:27:01;;;;;;;0.10;0.10;;;;;;;14.16;85.97;101489.56;10429481;28;20100;-68
2021/09/17 02:32:02;;;;;;;0.10;0.10;;;;;;;14.13;85.61;101485.38;10448740;28;20032;-69
2021/09/17 02:37:03;;;;;;;0.10;0.10;;;;;;;14.12;86.25;101490.91;10431253;28;20040;-69
2021/09/17 02:42:04;;;;;;;0.10;0.10;;;;;;;14.08;85.90;101485.06;10438930;28;20033;-69
2021/09/17 02:47:04;;;;;;;0.10;0.10;;;;;;;14.06;86.25;101483.56;10415922;28;20393;-69
2021/09/17 02:52:05;;;;;;;0.10;0.10;;;;;;;14.04;86.21;101487.22;10429978;28;20432;-69
2021/09/17 02:57:05;;;;;;;0.10;0.10;;;;;;;14.03;86.19;101495.44;10438951;28;20341;-69
2021/09/17 03:02:05;;;;;;;0.00;0.00;;;;;;;14.02;85.47;101499.97;10426706;28;20074;-69
2021/09/17 03:07:06;;;;;;;0.10;0.10;;;;;;;14.02;85.85;101499.97;10436122;28;20362;-69
2021/09/17 03:12:06;;;;;;;0.10;0.10;;;;;;;14.03;84.98;101490.91;10443897;28;20020;-69
2021/09/17 03:17:08;;;;;;;0.10;0.10;;;;;;;14.02;85.05;101491.06;10439227;28;20286;-69
2021/09/17 03:22:09;;;;;;;0.10;0.10;;;;;;;14.01;85.46;101489.41;10427683;28;20435;-69
2021/09/17 03:27:09;;;;;;;0.07;0.07;;;;;;;13.98;86.36;101489.72;10438008;28;20021;-69
2021/09/17 03:32:09;;;;;;;0.10;0.10;;;;;;;13.93;86.24;101500.09;10442168;28;20441;-69
2021/09/17 03:37:10;;;;;;;0.00;0.00;;;;;;;13.85;84.89;101490.22;10445105;28;20086;-69
2021/09/17 03:42:10;;;;;;;0.10;0.10;;;;;;;13.83;84.89;101497.56;10435335;28;20485;-69
2021/09/17 03:47:10;;;;;;;0.00;0.00;;;;;;;13.80;85.89;101503.25;10439351;28;20100;-69
2021/09/17 03:52:11;;;;;;;0.10;0.10;;;;;;;13.75;86.81;101501.06;10440778;28;20444;-69
2021/09/17 03:57:11;;;;;;;0.10;0.10;;;;;;;13.73;86.51;101504.91;10433131;28;20490;-68
2021/09/17 04:02:11;;;;;;;0.10;0.10;;;;;;;13.67;86.47;101502.88;10431391;28;20021;-68
2021/09/17 04:07:12;;;;;;;0.10;0.10;;;;;;;13.57;86.00;101511.03;10442689;28;20268;-69
2021/09/17 04:12:12;;;;;;;0.10;0.10;;;;;;;13.49;87.16;101508.34;10434818;28;20021;-69
2021/09/17 04:17:12;;;;;;;0.10;0.10;;;;;;;13.43;87.68;101512.50;10423063;28;20021;-70
2021/09/17 04:22:12;;;;;;;0.15;0.15;;;;;;;13.36;88.12;101506.97;10433905;28;20025;-69
2021/09/17 04:27:13;;;;;;;0.00;0.00;;;;;;;13.29;86.96;101513.97;10434386;28;20018;-69
2021/09/17 04:32:13;;;;;;;0.10;0.10;;;;;;;13.24;85.36;101507.38;10435703;28;20072;-69
2021/09/17 04:37:14;;;;;;;0.00;0.00;;;;;;;13.17;84.59;101506.31;10436734;28;20018;-70
2021/09/17 04:42:14;;;;;;;0.10;0.10;;;;;;;13.03;84.76;101511.28;10445164;22;20112;-64
2021/09/17 04:47:14;;;;;;;0.10;0.10;;;;;;;13.01;84.76;101515.13;10527581;28;20500;-66
2021/09/17 04:52:16;;;;;;;0.10;0.10;;;;;;;12.97;83.24;101535.97;10563933;28;20035;-65
2021/09/17 04:57:16;;;;;;;0.10;0.10;;;;;;;12.98;84.36;101542.16;10525268;28;20020;-65
2021/09/17 05:02:16;;;;;;;0.10;0.10;;;;;;;12.98;84.86;101543.00;10514065;28;20021;-67
2021/09/17 05:07:17;;;;;;;0.10;0.10;;;;;;;13.00;83.63;101546.38;10493960;28;20282;-65
2021/09/17 05:12:17;;;;;;;0.10;0.10;;;;;;;13.04;81.69;101550.41;10524765;28;20028;-65
2021/09/17 05:17:17;;;;;;;0.10;0.10;;;;;;;13.03;81.94;101543.38;10525010;28;20278;-64
2021/09/17 05:22:17;;;;;;;0.10;0.10;;;;;;;13.02;81.51;101560.41;10530117;28;20036;-65
2021/09/17 05:27:18;;;;;;;0.10;0.10;;;;;;;13.01;81.45;101560.56;10532564;28;20027;-65
2021/09/17 05:32:20;;;;;;;0.10;0.10;;;;;;;13.00;81.39;101551.72;10527206;28;20016;-66
2021/09/17 05:37:21;;;;;;;0.10;0.10;;;;;;;13.03;81.29;101559.44;10530345;28;20040;-65
2021/09/17 05:42:21;;;;;;;0.07;0.07;;;;;;;13.04;81.39;101547.72;10490632;28;20118;-66
2021/09/17 05:47:21;;;;;;;0.10;0.10;;;;;;;13.04;80.76;101552.25;10491078;28;20017;-65
2021/09/17 05:52:22;;;;;;;0.10;0.10;;;;;;;13.03;82.05;101546.06;10491284;28;20027;-65
2021/09/17 05:57:22;;;;;;;0.10;0.10;;;;;;;13.07;81.73;101558.09;10491202;28;20340;-66
2021/09/17 06:02:22;;;;;;;0.10;0.10;;;;;;;13.08;81.65;101546.41;10473775;28;20489;-65
2021/09/17 06:07:23;;;;;;;0.10;0.10;;;;;;;13.11;80.64;101547.91;10473488;28;20478;-66
2021/09/17 06:12:23;;;;;;;0.10;0.10;;;;;;;13.19;80.58;101561.34;10491497;28;20041;-65
2021/09/17 06:17:23;;;;;;;0.10;0.10;;;;;;;13.27;79.52;101565.94;10482937;28;20272;-65
2021/09/17 06:22:23;;;;;;;0.10;0.10;;;;;;;13.39;79.15;101567.34;10489785;28;20032;-65
2021/09/17 06:27:24;;;;;;;0.10;0.10;;;;;;;13.65;78.48;101556.59;10491102;28;20032;-65
2021/09/17 06:32:24;;;;;;;0.10;0.10;;;;;;;14.82;74.77;101549.41;10490982;28;20052;-66
2021/09/17 06:37:25;;;;;;;0.00;0.00;;;;;;;15.24;70.65;101549.19;10487970;28;21071;-66
2021/09/17 06:42:25;;;;;;;0.10;0.10;;;;;;;15.74;70.70;101545.31;10501695;28;20366;-66
2021/09/17 06:47:25;;;;;;;0.10;0.10;;;;;;;16.73;67.59;101537.38;10482724;28;20028;-66
2021/09/17 06:52:26;;;;;;;0.00;0.00;;;;;;;16.32;67.23;101537.72;10489439;28;20021;-66
2021/09/17 06:57:26;;;;;;;0.08;0.08;;;;;;;15.78;69.67;101548.47;10486562;28;20024;-65
2021/09/17 07:02:26;;;;;;;0.00;0.00;;;;;;;15.59;71.34;101541.63;10494030;28;20045;-65
2021/09/17 07:07:27;;;;;;;0.10;0.10;;;;;;;15.45;70.66;101545.09;10494765;28;20396;-65
2021/09/17 07:12:27;;;;;;;0.00;0.00;;;;;;;15.31;70.42;101550.16;10495961;28;20488;-68
2021/09/17 07:17:28;;;;;;;0.10;0.10;;;;;;;15.31;71.56;101552.84;10494902;28;20021;-66
2021/09/17 07:22:28;;;;;;;0.10;0.10;;;;;;;15.56;70.66;101558.97;10500172;28;20515;-66
2021/09/17 07:27:29;;;;;;;0.00;0.00;;;;;;;15.76;69.90;101559.38;10500599;28;20030;-66
2021/09/17 07:32:29;;;;;;;0.10;0.10;;;;;;;16.14;68.98;101551.44;10501282;28;20365;-67
2021/09/17 07:37:30;;;;;;;0.10;0.10;;;;;;;15.64;70.03;101558.06;10494660;28;20469;-67
2021/09/17 07:42:30;;;;;;;0.10;0.10;;;;;;;15.48;71.73;101552.78;10528693;28;20024;-67
2021/09/17 07:47:32;;;;;;;0.10;0.10;;;;;;;15.23;71.37;101555.53;10536194;28;20008;-67
2021/09/17 07:52:33;;;;;;;0.10;0.10;;;;;;;15.15;73.18;101563.59;10521821;28;20028;-66
2021/09/17 07:57:33;;;;;;;0.00;0.00;;;;;;;15.05;74.59;101566.47;10534403;28;20448;-66
2021/09/17 08:02:33;;;;;;;0.00;0.00;;;;;;;15.10;73.73;101566.81;10532825;28;20116;-67
2021/09/17 08:07:34;;;;;;;0.10;0.10;;;;;;;15.14;74.25;101559.25;10527551;28;20020;-66
2021/09/17 08:12:34;;;;;;;0.10;0.10;;;;;;;15.16;74.23;101582.22;10535477;28;20073;-66
2021/09/17 08:17:34;;;;;;;0.10;0.10;;;;;;;15.28;73.54;101565.75;10535551;28;20012;-67
2021/09/17 08:22:35;;;;;;;0.00;0.00;;;;;;;15.42;72.74;101573.09;10523920;28;20315;-67
2021/09/17 08:27:39;;;;;;;0.10;0.10;;;;;;;15.62;73.38;101579.75;10529044;28;20111;-66
2021/09/17 08:32:39;;;;;;;0.10;0.10;;;;;;;15.95;72.16;101576.94;10490818;28;20036;-67
2021/09/17 08:37:40;;;;;;;0.10;0.10;;;;;;;16.35;71.62;101579.53;10531487;28;20023;-66
2021/09/17 08:42:42;;;;;;;0.00;0.00;;;;;;;16.63;69.95;101575.28;10534591;28;20028;-67
2021/09/17 08:47:48;;;;;;;0.10;0.10;;;;;;;16.83;69.31;101589.09;10534103;28;20040;-66
2021/09/17 08:52:49;;;;;;;0.10;0.10;;;;;;;16.89;70.70;101590.22;10516691;28;20024;-66
2021/09/17 08:57:49;;;;;;;0.00;0.00;;;;;;;17.17;69.18;101593.16;10517478;28;20028;-65
2021/09/17 09:02:50;;;;;;;0.10;0.10;;;;;;;17.43;68.59;101592.72;10534171;28;20028;-66
2021/09/17 09:07:51;;;;;;;0.00;0.00;;;;;;;17.48;67.19;101592.97;10533237;28;20028;-66
2021/09/17 09:12:54;;;;;;;0.00;0.00;;;;;;;18.09;67.72;101596.31;10514009;28;20020;-66
2021/09/17 09:17:58;;;;;;;0.00;0.00;;;;;;;18.51;62.17;101591.94;10500371;28;20440;-66
2021/09/17 09:23:14;;;;;;;0.00;0.00;;;;;;;18.47;64.24;101585.28;10504341;28;20033;-66
2021/09/17 09:28:17;;;;;;;0.10;0.10;;;;;;;18.93;61.66;101582.16;10506785;28;20381;-66
2021/09/17 09:33:29;;;;;;;0.00;0.00;;;;;;;19.50;62.85;101577.56;10532978;28;20020;-65
2021/09/17 09:38:40;;;;;;;0.00;0.00;;;;;;;19.45;61.70;101582.72;10462339;28;20050;-66
2021/09/17 09:44:02;;;;;;;0.10;0.10;;;;;;;18.54;61.37;101588.88;10439518;28;20017;-65
2021/09/17 09:49:12;;;;;;;0.03;0.03;;;;;;;17.64;63.87;101586.56;10425350;28;20068;-65
2021/09/17 09:54:12;;;;;;;0.10;0.10;;;;;;;17.16;64.14;101578.88;10408251;28;20028;-66
2021/09/17 09:59:14;;;;;;;0.00;0.00;;;;;;;16.88;65.67;101586.72;10408358;28;20498;-65
2021/09/17 10:04:16;;;;;;;0.00;0.00;;;;;;;16.28;66.15;101582.94;10418492;28;20102;-66
2021/09/17 10:09:16;;;;;;;0.10;0.10;;;;;;;16.01;69.39;101594.19;10407764;28;20013;-66
2021/09/17 10:14:17;;;;;;;0.10;0.10;;;;;;;16.11;70.90;101588.59;10408808;28;20022;-66
2021/09/17 10:19:21;;;;;;;0.00;0.00;;;;;;;16.33;70.73;101579.72;10405671;28;20108;-65
2021/09/17 10:24:38;;;;;;;0.00;0.00;;;;;;;16.59;70.10;101590.13;10442582;28;20382;-66
2021/09/17 10:29:55;;;;;;;0.10;0.10;;;;;;;16.88;68.24;101594.78;10426482;28;20017;-66
2021/09/17 10:35:04;;;;;;;0.00;0.00;;;;;;;16.94;67.46;101588.66;10389740;28;20132;-66
2021/09/17 10:40:06;;;;;;;0.08;0.08;;;;;;;17.15;65.75;101582.56;10421636;28;20032;-66
2021/09/17 10:45:15;;;;;;;0.10;0.10;;;;;;;17.63;65.02;101583.06;10438321;28;20021;-66
2021/09/17 10:50:15;;;;;;;0.00;0.00;;;;;;;17.23;65.03;101575.44;10472593;28;20020;-66
2021/09/17 10:55:43;;;;;;;0.10;0.10;;;;;;;16.83;68.54;101581.03;10481715;28;20512;-65
2021/09/17 11:00:54;;;;;;;0.00;0.00;;;;;;;16.41;68.64;101573.47;10494400;28;20089;-66
2021/09/17 11:11:27;;;;;;;0.00;0.00;;;;;;;15.86;70.83;101575.31;10495771;28;20398;-66
2021/09/17 11:16:29;;;;;;;0.10;0.10;;;;;;;15.71;70.97;101575.22;10481918;23;20437;-68
2021/09/17 11:21:32;;;;;;;0.10;0.10;;;;;;;15.81;71.08;101583.88;10477110;28;20128;-69
2021/09/17 11:26:34;;;;;;;0.00;0.00;;;;;;;16.22;71.27;101577.44;10508710;28;20034;-69
2021/09/17 11:31:56;;;;;;;0.10;0.10;;;;;;;16.95;66.62;101576.03;10535593;28;20518;-68
2021/09/17 11:37:00;;;;;;;0.00;0.00;;;;;;;16.95;63.10;101576.03;10528916;28;20508;-69
2021/09/17 11:42:06;;;;;;;0.10;0.10;;;;;;;16.50;65.63;101583.13;10532167;28;20020;-68
2021/09/17 11:47:09;;;;;;;0.10;0.10;;;;;;;16.19;65.97;101591.25;10530198;28;20036;-70
2021/09/17 11:52:15;;;;;;;0.10;0.10;;;;;;;16.26;65.76;101587.66;10523214;28;20020;-69
2021/09/17 11:57:16;;;;;;;0.00;0.00;;;;;;;16.35;65.18;101590.28;10535053;28;20076;-69
2021/09/17 12:02:19;;;;;;;0.10;0.10;;;;;;;16.41;67.62;101589.59;10527815;28;20481;-68
2021/09/17 12:07:20;;;;;;;0.10;0.10;;;;;;;16.32;66.75;101585.25;10532563;28;20472;-69
2021/09/17 12:12:44;;;;;;;0.00;0.00;;;;;;;16.28;66.28;101584.78;10532126;28;20476;-69
2021/09/17 12:17:53;;;;;;;0.10;0.10;;;;;;;16.33;68.19;101587.78;10517917;28;20024;-69
2021/09/17 12:22:56;;;;;;;0.10;0.10;;;;;;;16.23;67.08;101581.78;10530908;28;20036;-69
2021/09/17 12:28:08;;;;;;;0.00;0.00;;;;;;;16.37;65.13;101580.19;10529909;28;20020;-69
2021/09/17 12:33:21;;;;;;;0.10;0.10;;;;;;;16.47;66.97;101572.75;10534526;28;20476;-70
2021/09/17 12:38:24;;;;;;;0.10;0.10;;;;;;;16.48;65.85;101575.22;10493253;28;20020;-69
2021/09/17 12:43:27;;;;;;;0.10;0.10;;;;;;;16.62;65.93;101578.16;10479850;28;20012;-69
2021/09/17 12:48:33;;;;;;;0.10;0.10;;;;;;;16.84;65.62;101571.97;10514438;28;20027;-70
2021/09/17 12:53:39;;;;;;;0.10;0.10;;;;;;;16.88;64.72;101580.50;10489353;28;20071;-70
2021/09/17 12:58:39;;;;;;;0.00;0.00;;;;;;;16.65;65.32;101573.25;10525126;28;20020;-69
2021/09/17 13:03:40;;;;;;;0.10;0.10;;;;;;;16.70;63.75;101578.94;10533510;28;20465;-69
2021/09/17 13:08:40;;;;;;;0.10;0.10;;;;;;;16.72;63.59;101573.34;10509310;28;20017;-69
2021/09/17 13:13:40;;;;;;;0.10;0.10;;;;;;;16.51;62.43;101582.09;10513229;28;20035;-69
2021/09/17 13:18:41;;;;;;;0.10;0.10;;;;;;;16.71;63.88;101572.53;10532212;28;20077;-70
2021/09/17 13:23:41;;;;;;;0.10;0.10;;;;;;;16.74;65.58;101577.53;10514498;28;20013;-69
2021/09/17 13:28:41;;;;;;;0.10;0.10;;;;;;;16.34;64.89;101573.31;10532776;28;20020;-69
2021/09/17 13:33:42;;;;;;;0.10;0.10;;;;;;;16.31;67.87;101579.06;10532237;28;20016;-69
2021/09/17 13:38:42;;;;;;;0.10;0.10;;;;;;;16.29;67.60;101571.19;10530469;28;20103;-69
2021/09/17 13:43:42;;;;;;;0.10;0.10;;;;;;;16.23;67.15;101569.22;10532193;28;20008;-69
2021/09/17 13:48:42;;;;;;;0.00;0.00;;;;;;;16.07;67.50;101563.94;10505633;28;20022;-70
2021/09/17 13:53:44;;;;;;;0.10;0.10;;;;;;;15.86;67.64;101569.94;10509271;28;20024;-70
2021/09/17 13:58:44;;;;;;;0.00;0.00;;;;;;;15.90;68.93;101563.19;10530773;28;20118;-70
2021/09/17 14:03:45;;;;;;;0.00;0.00;;;;;;;15.76;66.86;101559.38;10532131;28;20016;-69
2021/09/17 14:08:45;;;;;;;0.10;0.10;;;;;;;15.59;66.98;101560.44;10531207;28;20488;-69
2021/09/17 14:13:46;;;;;;;0.10;0.10;;;;;;;15.79;67.54;101564.41;10539487;28;20035;-69
2021/09/17 14:18:46;;;;;;;0.10;0.10;;;;;;;15.91;67.39;101569.38;10537457;28;20036;-69
2021/09/17 14:23:46;;;;;;;0.10;0.10;;;;;;;16.02;66.38;101563.63;10518094;28;20039;-70
2021/09/17 14:28:49;;;;;;;0.10;0.10;;;;;;;16.09;65.58;101563.78;10509997;28;20102;-69
2021/09/17 14:33:49;;;;;;;0.10;0.10;;;;;;;16.20;67.08;101569.56;10497336;28;20347;-69
2021/09/17 14:38:50;;;;;;;0.10;0.10;;;;;;;16.26;66.88;101565.31;10536474;28;20108;-69
2021/09/17 14:43:51;;;;;;;0.10;0.10;;;;;;;16.33;66.54;101560.06;10539180;28;20019;-69
2021/09/17 14:48:51;;;;;;;0.10;0.10;;;;;;;16.28;66.48;101560.59;10525362;28;20021;-69
2021/09/17 14:53:52;;;;;;;0.10;0.10;;;;;;;16.11;68.19;101554.50;10518879;28;20027;-70
2021/09/17 14:58:55;;;;;;;0.10;0.10;;;;;;;15.86;67.74;101548.44;10532503;28;20164;-70
2021/09/17 15:03:55;;;;;;;0.10;0.10;;;;;;;15.64;69.31;101560.75;10520102;28;20020;-70
2021/09/17 15:08:56;;;;;;;0.10;0.10;;;;;;;15.55;69.12;101567.19;10537697;28;20043;-69
2021/09/17 15:13:56;;;;;;;0.10;0.10;;;;;;;15.49;69.25;101568.72;10537905;28;20484;-69
2021/09/17 15:18:57;;;;;;;0.00;0.00;;;;;;;15.51;68.58;101571.22;10506667;28;20446;-69
2021/09/17 15:23:57;;;;;;;0.10;0.10;;;;;;;15.50;68.57;101561.47;10494401;28;20015;-70
2021/09/17 15:28:57;;;;;;;0.10;0.10;;;;;;;15.38;67.66;101561.03;10496968;28;20024;-69
2021/09/17 15:33:58;;;;;;;0.10;0.10;;;;;;;15.30;68.63;101564.59;10497034;28;20025;-69
2021/09/17 15:38:59;;;;;;;0.10;0.10;;;;;;;15.23;68.65;101571.63;10496404;28;20024;-70
2021/09/17 15:44:00;;;;;;;0.10;0.10;;;;;;;15.07;65.73;101571.69;10496787;28;20031;-68
2021/09/17 15:49:00;;;;;;;0.10;0.10;;;;;;;15.00;67.30;101566.16;10495815;28;20029;-68
2021/09/17 15:54:02;;;;;;;0.10;0.10;;;;;;;14.97;68.51;101568.34;10477935;28;20021;-68
2021/09/17 15:59:02;;;;;;;0.00;0.00;;;;;;;14.91;67.74;101565.31;10495733;28;20033;-68
2021/09/17 16:04:02;;;;;;;0.10;0.10;;;;;;;14.85;67.92;101563.31;10495756;28;20029;-68
2021/09/17 16:09:03;;;;;;;0.10;0.10;;;;;;;14.79;68.40;101561.31;10495290;28;20473;-68
2021/09/17 16:14:04;;;;;;;0.10;0.10;;;;;;;14.74;67.90;101566.34;10495259;28;20083;-69
2021/09/17 16:19:04;;;;;;;0.10;0.10;;;;;;;14.68;68.24;101567.84;10494845;28;20037;-69
2021/09/17 16:24:04;;;;;;;0.10;0.10;;;;;;;14.62;70.73;101567.69;10466695;28;20176;-68
2021/09/17 16:29:08;;;;;;;0.10;0.10;;;;;;;14.49;71.45;101579.72;10454294;28;20025;-68
2021/09/17 16:34:15;;;;;;;0.10;0.10;;;;;;;14.41;70.94;101570.84;10453638;28;20079;-69
2021/09/17 16:39:17;;;;;;;0.10;0.10;;;;;;;14.36;71.85;101570.50;10445503;28;20489;-69
2021/09/17 16:44:17;;;;;;;0.10;0.10;;;;;;;14.33;72.72;101581.53;10452467;28;20043;-69
2021/09/17 16:49:17;;;;;;;0.10;0.10;;;;;;;14.28;72.93;101579.34;10452164;28;20036;-68
2021/09/17 16:54:20;;;;;;;0.00;0.00;;;;;;;14.23;71.87;101579.84;10451040;28;20110;-68
2021/09/17 16:59:20;;;;;;;0.00;0.00;;;;;;;14.20;72.97;101584.72;10451689;28;20108;-68
2021/09/17 17:04:21;;;;;;;0.10;0.10;;;;;;;14.10;74.52;101578.66;10451913;28;20374;-69
2021/09/17 17:09:21;;;;;;;0.03;0.03;;;;;;;13.99;75.08;101582.47;10451441;28;20017;-68
2021/09/17 17:14:22;;;;;;;0.10;0.10;;;;;;;13.90;75.35;101581.59;10461118;28;20046;-68
2021/09/17 17:19:23;;;;;;;0.10;0.10;;;;;;;13.84;76.42;101582.25;10433817;22;20042;-67
2021/09/17 17:24:23;;;;;;;0.10;0.10;;;;;;;13.80;76.22;101573.72;10410516;28;20025;-67
2021/09/17 17:29:23;;;;;;;0.10;0.10;;;;;;;13.77;76.97;101582.06;10409937;28;20025;-67
2021/09/17 17:34:24;;;;;;;0.10;0.10;;;;;;;13.72;77.97;101579.03;10410068;28;20021;-66
2021/09/17 17:39:25;;;;;;;0.10;0.10;;;;;;;13.63;78.15;101589.88;10408451;28;20104;-67
2021/09/17 17:44:25;;;;;;;0.00;0.00;;;;;;;13.54;78.13;101589.81;10408888;28;20025;-68
2021/09/17 17:49:26;;;;;;;0.10;0.10;;;;;;;13.53;78.66;101593.50;10409581;28;20037;-67
2021/09/17 17:54:26;;;;;;;0.10;0.10;;;;;;;13.54;78.54;101597.84;10409366;28;20033;-68
2021/09/17 17:59:26;;;;;;;0.00;0.00;;;;;;;13.56;79.56;101595.88;10409284;28;20028;-67
2021/09/17 18:04:27;;;;;;;0.00;0.00;;;;;;;13.57;79.48;101604.72;10409924;28;20017;-67
2021/09/17 18:09:27;;;;;;;0.10;0.10;;;;;;;13.59;78.82;101605.41;10408368;28;20342;-67
2021/09/17 18:14:27;;;;;;;0.10;0.10;;;;;;;13.59;78.26;101619.63;10409051;28;20482;-66
2021/09/17 18:19:28;;;;;;;0.00;0.00;;;;;;;13.60;78.43;101617.78;10408704;28;20260;-66
2021/09/17 18:24:28;;;;;;;0.10;0.10;;;;;;;13.57;79.09;101613.59;10391155;28;20021;-67
2021/09/17 18:29:28;;;;;;;0.10;0.10;;;;;;;13.50;79.43;101628.63;10408414;28;20025;-67
2021/09/17 18:34:29;;;;;;;0.10;0.10;;;;;;;13.45;79.73;101632.78;10408695;28;20048;-67
2021/09/17 18:39:29;;;;;;;0.10;0.10;;;;;;;13.38;78.57;101632.56;10383350;28;20126;-67
2021/09/17 18:44:29;;;;;;;0.03;0.03;;;;;;;13.32;78.30;101628.69;10367059;28;20033;-68
2021/09/17 18:49:30;;;;;;;0.10;0.10;;;;;;;13.23;79.08;101631.41;10366141;28;20614;-66
2021/09/17 18:54:30;;;;;;;0.10;0.10;;;;;;;13.09;79.56;101627.50;10367164;28;20550;-68
2021/09/17 18:59:32;;;;;;;0.10;0.10;;;;;;;12.94;80.79;101637.88;10338194;28;20034;-67
2021/09/17 19:04:33;;;;;;;0.10;0.10;;;;;;;12.79;81.20;101636.75;10315523;28;20110;-68
2021/09/17 19:09:33;;;;;;;0.10;0.10;;;;;;;12.66;82.06;101643.34;10332372;28;20117;-67
2021/09/17 19:14:34;;;;;;;0.10;0.10;;;;;;;12.59;82.31;101644.94;10332615;28;20057;-66
2021/09/17 19:19:35;;;;;;;0.10;0.10;;;;;;;12.56;82.82;101649.75;10383974;28;20026;-66
2021/09/17 19:24:36;;;;;;;0.10;0.10;;;;;;;12.56;83.41;101655.09;10372234;28;20271;-68
2021/09/17 19:29:37;;;;;;;0.10;0.10;;;;;;;12.54;82.94;101657.09;10354630;28;20026;-68
2021/09/17 19:34:37;;;;;;;0.10;0.10;;;;;;;12.53;83.56;101661.56;10374013;28;20018;-67
2021/09/17 19:39:37;;;;;;;0.10;0.10;;;;;;;12.56;83.51;101655.94;10394859;28;20026;-67
2021/09/17 19:44:38;;;;;;;0.10;0.10;;;;;;;12.62;83.13;101659.81;10411920;28;20018;-67
2021/09/17 19:49:38;;;;;;;0.10;0.10;;;;;;;12.65;82.97;101657.72;10408579;28;20345;-67
2021/09/17 19:54:38;;;;;;;0.10;0.10;;;;;;;12.67;83.76;101661.06;10387212;28;20430;-67
2021/09/17 19:59:38;;;;;;;0.10;0.10;;;;;;;12.68;83.65;101660.09;10385796;28;20402;-67
2021/09/17 20:04:39;;;;;;;0.03;0.03;;;;;;;12.72;83.23;101671.31;10409544;28;20067;-68
2021/09/17 20:09:39;;;;;;;0.10;0.10;;;;;;;12.76;83.07;101666.47;10410311;28;20075;-66
2021/09/17 20:14:39;;;;;;;0.10;0.10;;;;;;;12.78;82.67;101664.50;10408789;28;20080;-67
2021/09/17 20:19:40;;;;;;;0.10;0.10;;;;;;;12.80;82.19;101658.00;10434532;28;20500;-67
2021/09/17 20:24:40;;;;;;;0.10;0.10;;;;;;;12.82;82.60;101669.38;10442650;28;20079;-67
2021/09/17 20:29:40;;;;;;;0.10;0.10;;;;;;;12.82;82.10;101665.88;10452090;28;20070;-67
2021/09/17 20:34:56;;;;;;;0.10;0.10;;;;;;;12.85;82.43;101670.91;10451117;28;20024;-67
2021/09/17 20:40:06;;;;;;;0.10;0.10;;;;;;;12.86;82.49;101669.94;10450413;28;20025;-68
2021/09/17 20:45:10;;;;;;;0.10;0.10;;;;;;;12.88;82.53;101670.59;10416649;28;20552;-66
2021/09/17 20:50:13;;;;;;;0.10;0.10;;;;;;;12.89;82.72;101665.09;10442172;28;20520;-67
2021/09/17 20:55:15;;;;;;;0.08;0.08;;;;;;;12.90;83.20;101668.63;10442795;28;20420;-67
2021/09/17 21:00:16;;;;;;;0.10;0.10;;;;;;;12.93;83.17;101670.16;10450508;28;20492;-67
2021/09/17 21:05:16;;;;;;;0.10;0.10;;;;;;;12.95;83.67;101674.34;10449904;28;20470;-67
2021/09/17 21:10:17;;;;;;;0.10;0.10;;;;;;;13.01;83.66;101676.41;10449957;28;20075;-66
2021/09/17 21:15:17;;;;;;;0.10;0.10;;;;;;;13.05;83.54;101676.94;10449931;28;20036;-66
2021/09/17 21:20:17;;;;;;;0.10;0.10;;;;;;;13.07;83.85;101677.63;10439423;28;20021;-67
2021/09/17 21:25:18;;;;;;;0.10;0.10;;;;;;;13.08;84.30;101681.97;10416348;28;20029;-66
2021/09/17 21:30:18;;;;;;;0.10;0.10;;;;;;;13.10;84.50;101680.00;10449557;28;20036;-67
2021/09/17 21:35:19;;;;;;;0.07;0.07;;;;;;;13.13;84.26;101677.84;10436082;28;20548;-67
2021/09/17 21:40:19;;;;;;;0.10;0.10;;;;;;;13.16;85.11;101683.88;10437997;28;20028;-67
2021/09/17 21:45:20;;;;;;;0.10;0.10;;;;;;;13.19;85.40;101684.41;10441308;28;20029;-67
2021/09/17 21:50:20;;;;;;;0.10;0.10;;;;;;;13.21;86.30;101692.28;10445665;28;20020;-68
2021/09/17 21:55:20;;;;;;;0.10;0.10;;;;;;;13.22;85.66;101686.75;10441364;28;20029;-67
2021/09/17 22:00:20;;;;;;;0.10;0.10;;;;;;;13.21;85.42;101686.94;10448676;28;20722;-66
2021/09/17 22:05:21;;;;;;;0.10;0.10;;;;;;;13.21;84.26;101686.94;10448771;28;20020;-67
2021/09/17 22:10:21;;;;;;;0.10;0.10;;;;;;;13.22;84.27;101678.75;10448944;28;20100;-67
2021/09/17 22:15:22;;;;;;;0.10;0.10;;;;;;;13.23;85.09;101688.44;10448476;28;20087;-66
2021/09/17 22:20:22;;;;;;;0.10;0.10;;;;;;;13.22;84.95;101693.97;10420307;28;20391;-67
2021/09/17 22:25:23;;;;;;;0.10;0.10;;;;;;;13.22;85.04;101683.25;10447710;28;20070;-66
2021/09/17 22:30:24;;;;;;;0.10;0.10;;;;;;;13.20;84.87;101678.03;10449392;28;20025;-66
2021/09/17 22:35:24;;;;;;;0.10;0.10;;;;;;;13.17;84.89;101680.19;10456267;28;20024;-67
2021/09/17 22:40:24;;;;;;;0.10;0.10;;;;;;;13.13;85.03;101674.31;10456729;28;20078;-67
2021/09/17 22:45:25;;;;;;;0.10;0.10;;;;;;;13.11;85.64;101684.34;10450698;28;20668;-67
2021/09/17 22:50:25;;;;;;;0.10;0.10;;;;;;;13.09;86.14;101686.34;10422934;28;20033;-68
2021/09/17 22:55:25;;;;;;;0.00;0.00;;;;;;;13.08;86.54;101680.13;10417302;28;20394;-66
2021/09/17 23:00:26;;;;;;;0.00;0.00;;;;;;;13.08;87.38;101682.81;10415433;28;20041;-67
2021/09/17 23:05:27;;;;;;;0.10;0.10;;;;;;;13.11;87.82;101687.84;10414658;28;20045;-67
2021/09/17 23:10:27;;;;;;;0.10;0.10;;;;;;;13.13;88.14;101687.69;10414617;28;20025;-66